Time;durP1;ratioP1;P1;durP2;ratioP2;P2;SDS_P1;SDS_P2;PMS_P1;PMS_P2;Temp;Humidity;BMP_temperature;BMP_pressure;BME280_temperature;BME280_humidity;BME280_pressure;Samples;Min_cycle;Max_cycle;Signal;HPM_P1;HPM_P2
2022/09/04 00:00:32;;;;;;;3.70;2.10;;;;;;;;;;5127243;27;20127;-85
2022/09/04 00:02:58;;;;;;;6.18;2.17;;;;;;;;;;5148810;27;20046;-85
2022/09/04 00:05:34;;;;;;;2.40;2.00;;;;;;;;;;5140294;27;20045;-86
2022/09/04 00:08:10;;;;;;;3.90;2.17;;;;;;;;;;5114838;27;20713;-85
2022/09/04 00:10:48;;;;;;;2.95;2.30;;;;;;;;;;5142149;27;20038;-85
2022/09/04 00:13:21;;;;;;;2.10;1.90;;;;;;;;;;5147059;27;20050;-86
2022/09/04 00:15:50;;;;;;;3.88;2.25;;;;;;;;;;5123732;27;20443;-86
2022/09/04 00:18:49;;;;;;;3.60;2.08;;;;;;;;;;5146528;27;20046;-86
2022/09/04 00:21:27;;;;;;;5.22;2.15;;;;;;;;;;5091277;27;20459;-86
2022/09/04 00:24:02;;;;;;;5.35;2.35;;;;;;;;;;5141938;27;20552;-84
2022/09/04 00:26:47;;;;;;;5.13;2.30;;;;;;;;;;5123613;27;20051;-86
2022/09/04 00:29:20;;;;;;;3.72;2.05;;;;;;;;;;5127102;27;20751;-84
2022/09/04 00:32:06;;;;;;;5.37;2.40;;;;;;;;;;5154893;27;20042;-86
2022/09/04 00:34:35;;;;;;;2.58;2.38;;;;;;;;;;5095671;27;20053;-86
2022/09/04 00:37:05;;;;;;;3.83;2.20;;;;;;;;;;5141900;27;20113;-85
2022/09/04 00:39:37;;;;;;;3.90;2.20;;;;;;;;;;5157126;27;20061;-86
2022/09/04 00:42:18;;;;;;;3.22;2.13;;;;;;;;;;5154554;27;20035;-85
2022/09/04 00:44:44;;;;;;;4.88;2.13;;;;;;;;;;5125198;27;20046;-85
2022/09/04 00:47:28;;;;;;;2.53;2.33;;;;;;;;;;5116508;27;20438;-84
2022/09/04 00:50:10;;;;;;;2.97;2.30;;;;;;;;;;5159559;27;20050;-84
2022/09/04 00:52:55;;;;;;;3.55;2.25;;;;;;;;;;5144011;27;20134;-85
2022/09/04 00:55:31;;;;;;;2.80;2.40;;;;;;;;;;5137469;27;20043;-85
2022/09/04 00:57:57;;;;;;;2.20;2.10;;;;;;;;;;5126985;27;20043;-85
2022/09/04 01:00:25;;;;;;;3.70;2.28;;;;;;;;;;5127457;27;20035;-84
2022/09/04 01:02:57;;;;;;;6.30;2.55;;;;;;;;;;5152452;27;20533;-85
2022/09/04 01:05:31;;;;;;;6.78;2.65;;;;;;;;;;5139749;27;20762;-85
2022/09/04 01:08:02;;;;;;;2.92;2.33;;;;;;;;;;5131058;27;20042;-84
2022/09/04 01:10:51;;;;;;;3.28;2.33;;;;;;;;;;5142899;27;20039;-84
2022/09/04 01:13:26;;;;;;;6.30;2.60;;;;;;;;;;5105206;27;20043;-88
2022/09/04 01:15:57;;;;;;;2.92;2.60;;;;;;;;;;5143349;27;20041;-85
2022/09/04 01:18:29;;;;;;;2.70;2.50;;;;;;;;;;5147407;27;20103;-89
2022/09/04 01:20:55;;;;;;;2.92;2.40;;;;;;;;;;5121945;27;20166;-86
2022/09/04 01:23:41;;;;;;;2.70;2.30;;;;;;;;;;5153708;27;20129;-87
2022/09/04 01:26:09;;;;;;;4.03;2.22;;;;;;;;;;5128651;27;20386;-84
2022/09/04 01:28:35;;;;;;;3.17;2.10;;;;;;;;;;5140832;27;20440;-82
2022/09/04 01:31:06;;;;;;;3.97;2.50;;;;;;;;;;5154042;27;20079;-83
2022/09/04 01:34:00;;;;;;;2.40;2.20;;;;;;;;;;5145113;27;20161;-83
2022/09/04 01:36:28;;;;;;;3.55;2.50;;;;;;;;;;5150410;27;20031;-84
2022/09/04 01:38:59;;;;;;;3.35;2.22;;;;;;;;;;5131673;27;20483;-82
2022/09/04 01:41:32;;;;;;;2.85;2.33;;;;;;;;;;5141496;27;20065;-83
2022/09/04 01:43:58;;;;;;;2.60;2.40;;;;;;;;;;5150238;27;20048;-82
2022/09/04 01:46:50;;;;;;;2.53;2.33;;;;;;;;;;5153319;27;20168;-83
2022/09/04 01:49:35;;;;;;;3.30;2.08;;;;;;;;;;5146897;27;20039;-83
2022/09/04 01:52:07;;;;;;;3.55;2.65;;;;;;;;;;5126593;27;20046;-83
2022/09/04 01:54:41;;;;;;;2.70;2.50;;;;;;;;;;5121053;27;20054;-83
2022/09/04 01:57:19;;;;;;;2.67;2.33;;;;;;;;;;5127165;27;20065;-83
2022/09/04 02:00:10;;;;;;;4.38;2.50;;;;;;;;;;5153115;27;20042;-83
2022/09/04 02:02:43;;;;;;;2.40;2.20;;;;;;;;;;5131940;27;20117;-83
2022/09/04 02:05:14;;;;;;;3.85;2.50;;;;;;;;;;5147233;27;20043;-84
2022/09/04 02:07:50;;;;;;;3.35;2.25;;;;;;;;;;5127515;27;20057;-83
2022/09/04 02:10:22;;;;;;;3.90;2.30;;;;;;;;;;5158240;27;20042;-81
2022/09/04 02:12:51;;;;;;;5.07;2.47;;;;;;;;;;5141753;27;20447;-83
2022/09/04 02:15:30;;;;;;;3.17;2.40;;;;;;;;;;5129072;27;20537;-82
2022/09/04 02:17:56;;;;;;;3.97;2.42;;;;;;;;;;5143947;27;20123;-83
2022/09/04 02:20:24;;;;;;;2.70;2.50;;;;;;;;;;5128439;27;20045;-84
2022/09/04 02:23:10;;;;;;;2.60;2.40;;;;;;;;;;5116631;27;20063;-84
2022/09/04 02:25:58;;;;;;;3.65;2.55;;;;;;;;;;5140783;27;20046;-83
2022/09/04 02:28:51;;;;;;;2.38;2.28;;;;;;;;;;5152112;27;20065;-83
2022/09/04 02:31:23;;;;;;;5.38;2.72;;;;;;;;;;5138530;27;20145;-83
2022/09/04 02:34:08;;;;;;;4.72;2.80;;;;;;;;;;5153512;27;20045;-83
2022/09/04 02:36:39;;;;;;;2.85;2.65;;;;;;;;;;5149088;27;20131;-85
2022/09/04 02:39:14;;;;;;;3.08;2.60;;;;;;;;;;5151334;27;20050;-83
2022/09/04 02:41:55;;;;;;;3.80;2.47;;;;;;;;;;5141523;27;20043;-83
2022/09/04 02:44:28;;;;;;;2.85;2.50;;;;;;;;;;5136349;27;20061;-83
2022/09/04 02:46:54;;;;;;;2.83;2.50;;;;;;;;;;5135335;27;20047;-82
2022/09/04 02:49:30;;;;;;;4.15;2.80;;;;;;;;;;5127065;27;20103;-83
2022/09/04 02:52:03;;;;;;;3.00;2.70;;;;;;;;;;5139644;27;20073;-82
2022/09/04 02:54:43;;;;;;;4.13;2.85;;;;;;;;;;5147419;27;20047;-82
2022/09/04 02:57:27;;;;;;;4.53;2.72;;;;;;;;;;5139613;27;20042;-83
2022/09/04 03:00:18;;;;;;;5.30;2.95;;;;;;;;;;5145325;27;20062;-82
2022/09/04 03:03:06;;;;;;;3.22;2.55;;;;;;;;;;5119350;27;20423;-83
2022/09/04 03:05:52;;;;;;;2.95;2.70;;;;;;;;;;5122014;27;20620;-83
2022/09/04 03:08:25;;;;;;;3.05;2.70;;;;;;;;;;5142712;27;20039;-84
2022/09/04 03:11:00;;;;;;;2.80;2.50;;;;;;;;;;5150427;27;20042;-84
2022/09/04 03:13:29;;;;;;;3.13;2.83;;;;;;;;;;5127548;27;20466;-84
2022/09/04 03:16:07;;;;;;;2.65;2.45;;;;;;;;;;5140199;27;20409;-83
2022/09/04 03:18:36;;;;;;;4.00;3.10;;;;;;;;;;5119748;27;20091;-84
2022/09/04 03:21:09;;;;;;;4.35;2.70;;;;;;;;;;5146456;27;20034;-85
2022/09/04 03:23:35;;;;;;;;;;;;;;;;;;5137717;27;20055;-84
2022/09/04 03:26:01;;;;;;;3.25;2.90;;;;;;;;;;5153025;27;19963;-83
2022/09/04 03:28:45;;;;;;;4.85;2.92;;;;;;;;;;5150690;27;20039;-84
2022/09/04 03:31:47;;;;;;;4.10;2.80;;;;;;;;;;5130788;27;20133;-83
2022/09/04 03:34:24;;;;;;;3.72;2.90;;;;;;;;;;5009929;28;20048;-84
2022/09/04 03:37:01;;;;;;;2.83;2.63;;;;;;;;;;5126313;27;20050;-83
2022/09/04 03:39:37;;;;;;;3.63;2.88;;;;;;;;;;5144820;27;20053;-83
2022/09/04 03:42:09;;;;;;;3.13;2.83;;;;;;;;;;5141051;27;20058;-84
2022/09/04 03:44:41;;;;;;;5.78;2.90;;;;;;;;;;5126146;27;20074;-83
2022/09/04 03:47:17;;;;;;;3.20;2.90;;;;;;;;;;5132705;27;20034;-83
2022/09/04 03:50:02;;;;;;;3.40;2.95;;;;;;;;;;5143362;27;20047;-83
2022/09/04 03:52:44;;;;;;;4.20;2.90;;;;;;;;;;5133383;27;20046;-83
2022/09/04 03:55:14;;;;;;;3.47;3.17;;;;;;;;;;5123304;27;20043;-84
2022/09/04 03:57:48;;;;;;;5.03;3.17;;;;;;;;;;5127283;27;20566;-83
2022/09/04 04:00:19;;;;;;;4.00;2.95;;;;;;;;;;5128957;27;20090;-83
2022/09/04 04:03:21;;;;;;;4.63;3.03;;;;;;;;;;5118046;27;20180;-83
2022/09/04 04:05:54;;;;;;;3.40;3.10;;;;;;;;;;5025062;28;20045;-84
2022/09/04 04:08:28;;;;;;;3.95;3.03;;;;;;;;;;5122143;27;20058;-83
2022/09/04 04:11:06;;;;;;;3.58;3.13;;;;;;;;;;5127025;27;20091;-83
2022/09/04 04:13:51;;;;;;;4.60;3.08;;;;;;;;;;5141502;27;20066;-83
2022/09/04 04:16:29;;;;;;;3.45;3.10;;;;;;;;;;5155225;27;20056;-83
2022/09/04 04:19:09;;;;;;;3.28;2.97;;;;;;;;;;5129886;27;20046;-83
2022/09/04 04:21:35;;;;;;;3.33;3.10;;;;;;;;;;5127469;27;22014;-84
2022/09/04 04:24:01;;;;;;;3.42;3.22;;;;;;;;;;5153376;27;20460;-83
2022/09/04 04:26:27;;;;;;;4.90;3.30;;;;;;;;;;5132806;27;20046;-84
2022/09/04 04:29:08;;;;;;;3.50;3.20;;;;;;;;;;5141664;27;20049;-83
2022/09/04 04:31:40;;;;;;;4.90;3.05;;;;;;;;;;5113973;27;20462;-83
2022/09/04 04:34:06;;;;;;;4.97;3.15;;;;;;;;;;5133520;27;20035;-83
2022/09/04 04:36:52;;;;;;;3.40;3.10;;;;;;;;;;5142112;27;20087;-83
2022/09/04 04:39:40;;;;;;;3.50;3.20;;;;;;;;;;5140955;27;20047;-83
2022/09/04 04:42:28;;;;;;;5.47;3.30;;;;;;;;;;5147280;27;20053;-83
2022/09/04 04:48:13;;;;;;;4.88;3.42;;;;;;;;;;5135149;27;20054;-83
2022/09/04 04:50:48;;;;;;;3.92;3.50;;;;;;;;;;5145580;27;20060;-83
2022/09/04 04:53:18;;;;;;;5.07;3.13;;;;;;;;;;5124493;27;20038;-83
2022/09/04 04:55:50;;;;;;;3.97;3.53;;;;;;;;;;5131951;27;20069;-83
2022/09/04 04:58:15;;;;;;;3.42;3.13;;;;;;;;;;5140263;27;20046;-84
2022/09/04 05:00:44;;;;;;;3.60;3.30;;;;;;;;;;5145354;27;20035;-83
2022/09/04 05:03:31;;;;;;;6.03;3.50;;;;;;;;;;5117877;27;20035;-84
2022/09/04 05:06:09;;;;;;;4.25;3.55;;;;;;;;;;5126981;27;20145;-83
2022/09/04 05:08:35;;;;;;;4.10;3.33;;;;;;;;;;5141799;27;20104;-84
2022/09/04 05:11:05;;;;;;;4.18;3.22;;;;;;;;;;5137988;27;20490;-83
2022/09/04 05:13:47;;;;;;;4.00;3.60;;;;;;;;;;5125688;27;20038;-83
2022/09/04 05:16:32;;;;;;;3.72;3.42;;;;;;;;;;5121711;27;20038;-83
2022/09/04 05:19:10;;;;;;;6.93;3.28;;;;;;;;;;5131165;27;20075;-84
2022/09/04 05:21:59;;;;;;;3.92;3.55;;;;;;;;;;5148365;27;20122;-84
2022/09/04 05:24:38;;;;;;;3.78;3.22;;;;;;;;;;5127135;27;20049;-83
2022/09/04 05:27:24;;;;;;;5.35;3.60;;;;;;;;;;5131581;27;20046;-83
2022/09/04 05:29:53;;;;;;;3.72;3.38;;;;;;;;;;5121145;27;20065;-83
2022/09/04 05:32:28;;;;;;;3.58;3.22;;;;;;;;;;5143381;27;20554;-82
2022/09/04 05:35:09;;;;;;;3.78;3.45;;;;;;;;;;5123617;27;20055;-83
2022/09/04 05:37:35;;;;;;;5.40;3.35;;;;;;;;;;5136661;27;20054;-82
2022/09/04 05:40:02;;;;;;;3.80;3.40;;;;;;;;;;5142806;27;20394;-82
2022/09/04 05:42:53;;;;;;;4.65;3.58;;;;;;;;;;5131215;27;20046;-81
2022/09/04 05:45:38;;;;;;;3.90;3.47;;;;;;;;;;5123544;27;20050;-83
2022/09/04 05:48:16;;;;;;;3.97;3.60;;;;;;;;;;5144406;27;20043;-82
2022/09/04 05:50:48;;;;;;;4.50;3.40;;;;;;;;;;5159359;27;20405;-82
2022/09/04 05:53:29;;;;;;;4.18;3.20;;;;;;;;;;5141407;27;20043;-82
2022/09/04 05:55:55;;;;;;;4.47;3.22;;;;;;;;;;5132806;27;20057;-82
2022/09/04 05:58:30;;;;;;;3.22;3.03;;;;;;;;;;5131423;27;20047;-83
2022/09/04 06:01:22;;;;;;;3.80;3.50;;;;;;;;;;5131636;27;20091;-82
2022/09/04 06:03:54;;;;;;;3.75;3.45;;;;;;;;;;5150068;27;20047;-83
2022/09/04 06:06:22;;;;;;;5.10;3.30;;;;;;;;;;5144121;27;20120;-83
2022/09/04 06:08:48;;;;;;;4.13;3.70;;;;;;;;;;5125801;27;20041;-82
2022/09/04 06:11:32;;;;;;;5.43;3.60;;;;;;;;;;5136531;27;20141;-83
2022/09/04 06:13:58;;;;;;;4.00;3.70;;;;;;;;;;5140317;27;20042;-83
2022/09/04 06:16:34;;;;;;;4.30;3.47;;;;;;;;;;5151568;27;20038;-83
2022/09/04 06:19:26;;;;;;;3.92;3.63;;;;;;;;;;5151620;27;20087;-83
2022/09/04 06:21:55;;;;;;;4.75;3.20;;;;;;;;;;5154767;27;20393;-83
2022/09/04 06:24:21;;;;;;;3.35;3.08;;;;;;;;;;5145209;27;20046;-83
2022/09/04 06:26:47;;;;;;;3.92;3.42;;;;;;;;;;5161809;27;20067;-83
2022/09/04 06:29:13;;;;;;;4.53;3.45;;;;;;;;;;5132339;27;20048;-83
2022/09/04 06:31:38;;;;;;;3.70;3.40;;;;;;;;;;5141392;27;20050;-83
2022/09/04 06:34:16;;;;;;;3.75;3.45;;;;;;;;;;5134645;27;20113;-83
2022/09/04 06:36:51;;;;;;;4.35;3.30;;;;;;;;;;5158823;27;20140;-83
2022/09/04 06:39:25;;;;;;;3.83;3.53;;;;;;;;;;5126475;27;20043;-83
2022/09/04 06:41:54;;;;;;;4.10;3.70;;;;;;;;;;5150464;27;20066;-83
2022/09/04 06:44:39;;;;;;;3.70;3.40;;;;;;;;;;5139958;27;20061;-82
2022/09/04 06:47:25;;;;;;;6.15;3.63;;;;;;;;;;5146009;27;20039;-82
2022/09/04 06:49:55;;;;;;;5.70;3.67;;;;;;;;;;5120248;27;20043;-82
2022/09/04 06:52:27;;;;;;;3.80;3.50;;;;;;;;;;5125349;27;20490;-83
2022/09/04 06:55:29;;;;;;;4.03;3.63;;;;;;;;;;5144507;27;20466;-83
2022/09/04 06:58:01;;;;;;;6.40;3.40;;;;;;;;;;5048224;28;20562;-84
2022/09/04 07:00:29;;;;;;;3.75;3.35;;;;;;;;;;5103977;27;20050;-84
2022/09/04 07:02:55;;;;;;;3.95;3.28;;;;;;;;;;5125565;27;20046;-83
2022/09/04 07:05:27;;;;;;;3.67;3.38;;;;;;;;;;5144755;27;20035;-83
2022/09/04 07:08:12;;;;;;;4.38;3.97;;;;;;;;;;5129068;27;20035;-81
2022/09/04 07:10:45;;;;;;;3.33;3.13;;;;;;;;;;5147629;27;20049;-81
2022/09/04 07:13:14;;;;;;;4.25;3.70;;;;;;;;;;5141328;27;20043;-84
2022/09/04 07:15:49;;;;;;;5.35;3.85;;;;;;;;;;5143490;27;20099;-83
2022/09/04 07:18:38;;;;;;;3.80;3.50;;;;;;;;;;5129737;27;20093;-83
2022/09/04 07:21:14;;;;;;;3.72;3.42;;;;;;;;;;5108323;27;20083;-84
2022/09/04 07:23:59;;;;;;;5.03;3.70;;;;;;;;;;5122186;27;20054;-83
2022/09/04 07:26:44;;;;;;;4.85;3.90;;;;;;;;;;5146712;27;20043;-83
2022/09/04 07:29:19;;;;;;;4.10;3.80;;;;;;;;;;5147723;27;20066;-84
2022/09/04 07:31:52;;;;;;;4.18;3.63;;;;;;;;;;5144098;27;20035;-83
2022/09/04 07:34:36;;;;;;;4.03;3.72;;;;;;;;;;5145935;27;20066;-83
2022/09/04 07:37:03;;;;;;;3.97;3.67;;;;;;;;;;5127681;27;20038;-84
2022/09/04 07:39:34;;;;;;;7.40;4.38;;;;;;;;;;5131256;27;20073;-84
2022/09/04 07:42:14;;;;;;;6.72;4.30;;;;;;;;;;5148102;27;20050;-84
2022/09/04 07:44:46;;;;;;;4.30;4.00;;;;;;;;;;5121739;27;20138;-83
2022/09/04 07:47:30;;;;;;;4.32;3.92;;;;;;;;;;5145954;27;20041;-84
2022/09/04 07:50:14;;;;;;;4.32;3.95;;;;;;;;;;5143693;27;20034;-84
2022/09/04 07:52:55;;;;;;;5.45;4.63;;;;;;;;;;5125617;27;20047;-83
2022/09/04 07:55:27;;;;;;;6.90;4.68;;;;;;;;;;5136369;27;20060;-84
2022/09/04 07:58:07;;;;;;;5.78;4.97;;;;;;;;;;5147130;27;20045;-83
2022/09/04 08:00:43;;;;;;;9.15;5.45;;;;;;;;;;5144564;27;20038;-83
2022/09/04 08:03:12;;;;;;;5.93;5.32;;;;;;;;;;5134774;27;20034;-84
2022/09/04 08:05:44;;;;;;;6.85;5.43;;;;;;;;;;5115434;27;20074;-84
2022/09/04 08:08:25;;;;;;;8.00;6.13;;;;;;;;;;5137434;27;20420;-85
2022/09/04 08:11:01;;;;;;;6.35;5.75;;;;;;;;;;5131840;27;20568;-79
2022/09/04 08:13:39;;;;;;;7.78;6.72;;;;;;;;;;5123856;27;20091;-80
2022/09/04 08:16:07;;;;;;;7.43;6.65;;;;;;;;;;5140521;27;20043;-83
2022/09/04 08:18:51;;;;;;;9.05;6.38;;;;;;;;;;5124863;27;20042;-91
2022/09/04 08:21:17;;;;;;;7.63;6.90;;;;;;;;;;5145122;27;20085;-91
2022/09/04 08:24:00;;;;;;;7.55;6.75;;;;;;;;;;5126118;27;20070;-83
2022/09/04 08:26:32;;;;;;;7.43;6.70;;;;;;;;;;5117860;27;20062;-78
2022/09/04 08:29:01;;;;;;;9.10;8.13;;;;;;;;;;5135866;27;20091;-77
2022/09/04 08:31:46;;;;;;;7.72;6.97;;;;;;;;;;5140603;27;20106;-81
2022/09/04 08:34:30;;;;;;;8.90;7.72;;;;;;;;;;5124394;27;20501;-84
2022/09/04 08:36:55;;;;;;;7.95;7.25;;;;;;;;;;5120084;27;20438;-78
2022/09/04 08:39:38;;;;;;;8.25;7.45;;;;;;;;;;5136373;27;20082;-80
2022/09/04 08:42:04;;;;;;;11.37;8.67;;;;;;;;;;5119620;27;20039;-83
2022/09/04 08:44:30;;;;;;;10.73;8.88;;;;;;;;;;5155347;27;20411;-82
2022/09/04 08:47:09;;;;;;;8.48;7.68;;;;;;;;;;5132614;27;20050;-78
2022/09/04 08:49:54;;;;;;;8.70;7.90;;;;;;;;;;5144445;27;20046;-79
2022/09/04 08:52:32;;;;;;;9.32;8.13;;;;;;;;;;5149331;27;20039;-81
2022/09/04 08:55:11;;;;;;;9.02;7.97;;;;;;;;;;5155682;27;20126;-79
2022/09/04 08:57:55;;;;;;;8.93;7.93;;;;;;;;;;5142226;27;20040;-79
2022/09/04 09:00:22;;;;;;;8.63;7.68;;;;;;;;;;5135568;27;20487;-80
2022/09/04 09:03:04;;;;;;;10.23;7.20;;;;;;;;;;5167038;27;20034;-80
2022/09/04 09:05:54;;;;;;;8.27;6.65;;;;;;;;;;5122447;27;20062;-78
2022/09/04 09:08:38;;;;;;;8.00;7.20;;;;;;;;;;5145458;27;20647;-78
2022/09/04 09:11:23;;;;;;;7.60;6.90;;;;;;;;;;5139451;27;20114;-76
2022/09/04 09:14:02;;;;;;;7.18;6.43;;;;;;;;;;5136144;27;20726;-79
2022/09/04 09:16:37;;;;;;;8.05;7.13;;;;;;;;;;5167117;27;20099;-76
2022/09/04 09:19:11;;;;;;;7.28;6.53;;;;;;;;;;5130079;27;20057;-78
2022/09/04 09:21:54;;;;;;;7.80;6.45;;;;;;;;;;5122892;27;20049;-80
2022/09/04 09:24:33;;;;;;;6.28;5.68;;;;;;;;;;5140663;27;20088;-80
2022/09/04 09:26:59;;;;;;;8.32;6.85;;;;;;;;;;5118289;27;20043;-81
2022/09/04 09:29:51;;;;;;;7.53;6.78;;;;;;;;;;5166534;27;20053;-79
2022/09/04 09:32:29;;;;;;;7.18;6.47;;;;;;;;;;5109737;27;20418;-79
2022/09/04 09:35:14;;;;;;;6.70;6.10;;;;;;;;;;5145112;27;20038;-76
2022/09/04 09:37:49;;;;;;;7.05;6.05;;;;;;;;;;5138060;27;20062;-79
2022/09/04 09:40:18;;;;;;;6.43;5.75;;;;;;;;;;5123997;27;20043;-80
2022/09/04 09:43:03;;;;;;;7.82;6.45;;;;;;;;;;5138335;27;20084;-83
2022/09/04 09:45:44;;;;;;;7.18;5.80;;;;;;;;;;5164647;27;20046;-79
2022/09/04 09:48:29;;;;;;;6.47;5.88;;;;;;;;;;5150062;27;20046;-86
2022/09/04 09:51:01;;;;;;;6.68;6.07;;;;;;;;;;5148292;27;20110;-82
2022/09/04 09:53:46;;;;;;;7.10;5.70;;;;;;;;;;5120257;27;20050;-80
2022/09/04 09:56:31;;;;;;;9.02;5.85;;;;;;;;;;5152528;27;20404;-80
2022/09/04 09:59:00;;;;;;;7.00;5.60;;;;;;;;;;5139304;27;20049;-81
2022/09/04 10:01:45;;;;;;;6.28;5.30;;;;;;;;;;5136042;27;20084;-79
2022/09/04 10:04:11;;;;;;;5.85;4.80;;;;;;;;;;5149241;27;20456;-83
2022/09/04 10:06:43;;;;;;;6.95;5.75;;;;;;;;;;5164446;27;20035;-78
2022/09/04 10:09:27;;;;;;;4.78;4.38;;;;;;;;;;5115488;27;20410;-86
2022/09/04 10:11:55;;;;;;;6.35;4.93;;;;;;;;;;5127339;27;20477;-78
2022/09/04 10:14:48;;;;;;;5.18;4.68;;;;;;;;;;5150325;27;20039;-81
2022/09/04 10:17:13;;;;;;;4.95;4.50;;;;;;;;;;5156572;27;20095;-86
2022/09/04 10:20:00;;;;;;;5.10;4.70;;;;;;;;;;5144073;27;20043;-81
2022/09/04 10:22:55;;;;;;;5.10;4.60;;;;;;;;;;5130771;27;20414;-76
2022/09/04 10:25:24;;;;;;;4.47;4.15;;;;;;;;;;5147387;27;20107;-76
2022/09/04 10:28:09;;;;;;;5.25;4.22;;;;;;;;;;5150603;27;20061;-78
2022/09/04 10:30:54;;;;;;;4.85;4.45;;;;;;;;;;5137659;27;20042;-81
2022/09/04 10:33:26;;;;;;;4.63;4.22;;;;;;;;;;5141906;27;20089;-87
2022/09/04 10:36:03;;;;;;;5.10;4.70;;;;;;;;;;5139231;27;20043;-83
2022/09/04 10:41:34;;;;;;;;;;;;;;;;;;5139700;27;20526;-92
2022/09/04 10:44:18;;;;;;;3.60;3.30;;;;;;;;;;5155407;27;20017;-88
2022/09/04 10:47:03;;;;;;;4.57;3.65;;;;;;;;;;5148912;27;20042;-87
2022/09/04 10:49:37;;;;;;;3.65;3.35;;;;;;;;;;5129759;27;20112;-88
2022/09/04 10:52:04;;;;;;;3.45;3.20;;;;;;;;;;5146887;27;20070;-88
2022/09/04 10:54:39;;;;;;;3.63;3.33;;;;;;;;;;5123889;27;20046;-89
2022/09/04 10:57:17;;;;;;;3.65;3.08;;;;;;;;;;5145309;27;20050;-87
2022/09/04 10:59:56;;;;;;;3.90;3.33;;;;;;;;;;5152913;27;20388;-88
2022/09/04 11:02:40;;;;;;;3.95;3.55;;;;;;;;;;5139871;27;20050;-89
2022/09/04 11:05:11;;;;;;;3.25;2.83;;;;;;;;;;5131050;27;20426;-88
2022/09/04 11:07:57;;;;;;;3.35;3.08;;;;;;;;;;5121677;27;20128;-88
2022/09/04 11:10:31;;;;;;;2.67;2.47;;;;;;;;;;5144784;27;20042;-86
2022/09/04 11:13:03;;;;;;;4.35;2.83;;;;;;;;;;5120641;27;20039;-87
2022/09/04 11:15:36;;;;;;;3.60;3.30;;;;;;;;;;5133012;27;20482;-88
2022/09/04 11:18:21;;;;;;;3.20;2.90;;;;;;;;;;5129593;27;20342;-88
2022/09/04 11:21:06;;;;;;;3.38;3.10;;;;;;;;;;5123806;27;20058;-89
2022/09/04 11:23:49;;;;;;;3.65;2.80;;;;;;;;;;5126862;27;20112;-89
2022/09/04 11:26:35;;;;;;;4.25;2.75;;;;;;;;;;5132509;27;20063;-87
2022/09/04 11:29:11;;;;;;;3.33;2.63;;;;;;;;;;5149298;27;20057;-89
2022/09/04 11:31:53;;;;;;;2.85;2.65;;;;;;;;;;5117635;27;20065;-87
2022/09/04 11:34:42;;;;;;;2.85;2.58;;;;;;;;;;5138888;27;20629;-88
2022/09/04 11:37:26;;;;;;;2.97;2.78;;;;;;;;;;5147113;27;20127;-90
2022/09/04 11:39:52;;;;;;;2.95;2.72;;;;;;;;;;5143885;27;20495;-87
2022/09/04 11:42:19;;;;;;;3.03;2.72;;;;;;;;;;5123704;27;20130;-87
2022/09/04 11:45:04;;;;;;;3.67;3.10;;;;;;;;;;5138136;27;20047;-88
2022/09/04 11:47:51;;;;;;;3.30;2.95;;;;;;;;;;5161412;27;20457;-88
2022/09/04 11:50:17;;;;;;;3.05;2.85;;;;;;;;;;5153632;27;20329;-90
2022/09/04 11:53:03;;;;;;;3.15;2.90;;;;;;;;;;5113782;27;20651;-87
2022/09/04 11:55:35;;;;;;;2.95;2.75;;;;;;;;;;5134687;27;20506;-85
2022/09/04 11:58:07;;;;;;;4.50;2.80;;;;;;;;;;5123029;27;20035;-86
2022/09/04 12:00:58;;;;;;;2.75;2.55;;;;;;;;;;5127250;27;20047;-89
2022/09/04 12:03:35;;;;;;;3.42;2.90;;;;;;;;;;5112096;27;20085;-87
2022/09/04 12:06:20;;;;;;;3.35;2.80;;;;;;;;;;5149078;27;20039;-89
2022/09/04 12:08:49;;;;;;;3.70;2.58;;;;;;;;;;5130292;27;20050;-90
2022/09/04 12:11:30;;;;;;;3.60;2.50;;;;;;;;;;5151348;27;20043;-90
2022/09/04 12:14:00;;;;;;;2.80;2.60;;;;;;;;;;5140670;27;20115;-91
2022/09/04 12:16:46;;;;;;;2.85;2.65;;;;;;;;;;5159940;27;20043;-89
2022/09/04 12:19:12;;;;;;;2.78;2.50;;;;;;;;;;5154996;27;20487;-90
2022/09/04 12:21:56;;;;;;;2.72;2.53;;;;;;;;;;5117619;27;20048;-92
2022/09/04 12:24:25;;;;;;;3.13;2.40;;;;;;;;;;5120973;27;20050;-89
2022/09/04 12:26:58;;;;;;;3.28;2.90;;;;;;;;;;5140318;27;20046;-90
2022/09/04 12:29:24;;;;;;;3.70;2.95;;;;;;;;;;5149303;27;20098;-90
2022/09/04 12:31:50;;;;;;;3.63;3.20;;;;;;;;;;5134041;27;20051;-90
2022/09/04 12:34:35;;;;;;;3.50;2.83;;;;;;;;;;5115643;28;20047;-90
2022/09/04 12:37:10;;;;;;;3.13;2.85;;;;;;;;;;5127557;27;20038;-90
2022/09/04 12:39:39;;;;;;;3.30;3.08;;;;;;;;;;5120614;27;20534;-89
2022/09/04 12:42:10;;;;;;;3.85;3.22;;;;;;;;;;5142940;27;20497;-89
2022/09/04 12:44:54;;;;;;;3.40;3.10;;;;;;;;;;5135889;27;20066;-90
2022/09/04 12:47:35;;;;;;;3.10;2.90;;;;;;;;;;5120767;28;20394;-89
2022/09/04 12:50:21;;;;;;;4.60;3.20;;;;;;;;;;5127102;28;20055;-90
2022/09/04 12:53:03;;;;;;;5.57;3.05;;;;;;;;;;5116126;28;20100;-89
2022/09/04 12:55:48;;;;;;;3.70;3.40;;;;;;;;;;5123662;27;20058;-86
2022/09/04 12:58:17;;;;;;;3.97;3.60;;;;;;;;;;5116005;27;20496;-89
2022/09/04 13:01:03;;;;;;;3.83;3.35;;;;;;;;;;5117530;27;20407;-90
2022/09/04 13:03:38;;;;;;;3.25;2.95;;;;;;;;;;5119222;27;20061;-90
2022/09/04 13:06:26;;;;;;;4.82;4.43;;;;;;;;;;5126706;27;20891;-90
2022/09/04 13:09:06;;;;;;;5.90;4.50;;;;;;;;;;5119802;27;20073;-90
2022/09/04 13:11:32;;;;;;;5.45;4.75;;;;;;;;;;5139296;27;20125;-91
2022/09/04 13:14:12;;;;;;;4.57;3.97;;;;;;;;;;5120046;27;20591;-88
2022/09/04 13:16:44;;;;;;;6.97;6.00;;;;;;;;;;5124523;27;20381;-91
2022/09/04 13:19:23;;;;;;;5.72;4.57;;;;;;;;;;5126947;27;20175;-89
2022/09/04 13:21:57;;;;;;;4.47;4.07;;;;;;;;;;5140561;27;20046;-89
2022/09/04 13:24:42;;;;;;;5.15;4.65;;;;;;;;;;5142104;27;20051;-90
2022/09/04 13:27:31;;;;;;;8.30;5.35;;;;;;;;;;5124295;27;20350;-90
2022/09/04 13:30:17;;;;;;;4.75;4.30;;;;;;;;;;5127114;27;20133;-89
2022/09/04 13:32:52;;;;;;;4.75;4.35;;;;;;;;;;5157115;27;20054;-89
2022/09/04 13:35:30;;;;;;;7.57;5.10;;;;;;;;;;5125320;27;20051;-89
2022/09/04 13:38:15;;;;;;;8.30;4.70;;;;;;;;;;5126218;27;20174;-89
2022/09/04 13:40:53;;;;;;;5.90;5.13;;;;;;;;;;5121977;27;20050;-90
2022/09/04 13:43:40;;;;;;;8.20;5.15;;;;;;;;;;5137234;27;20043;-90
2022/09/04 13:46:10;;;;;;;7.38;5.35;;;;;;;;;;5117470;27;20046;-89
2022/09/04 13:48:36;;;;;;;5.60;4.50;;;;;;;;;;5120033;27;20051;-89
2022/09/04 13:51:05;;;;;;;5.75;5.25;;;;;;;;;;5119118;27;20071;-89
2022/09/04 13:53:48;;;;;;;7.22;5.22;;;;;;;;;;5143873;27;20398;-89
2022/09/04 13:56:14;;;;;;;;;;;;;;;;;;5128746;27;20058;-89
2022/09/04 13:58:49;;;;;;;6.90;6.13;;;;;;;;;;5160972;27;19923;-90
2022/09/04 14:01:21;;;;;;;6.03;5.43;;;;;;;;;;5136529;27;20035;-90
2022/09/04 14:03:49;;;;;;;7.57;5.65;;;;;;;;;;5121500;27;20584;-84
2022/09/04 14:06:17;;;;;;;7.60;5.18;;;;;;;;;;5140494;27;20042;-88
2022/09/04 14:08:45;;;;;;;4.95;4.45;;;;;;;;;;5117066;27;20047;-83
2022/09/04 14:11:11;;;;;;;4.93;4.53;;;;;;;;;;5122025;27;20043;-83
2022/09/04 14:13:50;;;;;;;6.25;4.53;;;;;;;;;;5124538;27;20150;-84
2022/09/04 14:16:17;;;;;;;5.15;4.70;;;;;;;;;;5145716;27;20112;-85
2022/09/04 14:18:46;;;;;;;6.25;4.32;;;;;;;;;;5131175;27;20082;-84
2022/09/04 14:21:31;;;;;;;5.88;4.85;;;;;;;;;;5154739;27;20043;-89
2022/09/04 14:24:09;;;;;;;5.40;4.65;;;;;;;;;;5120101;27;20087;-86
2022/09/04 14:26:40;;;;;;;5.25;4.75;;;;;;;;;;5111987;28;20047;-84
2022/09/04 14:29:27;;;;;;;4.85;4.45;;;;;;;;;;5111444;27;20053;-81
2022/09/04 14:32:12;;;;;;;4.28;3.88;;;;;;;;;;5118194;27;20053;-83
2022/09/04 14:34:48;;;;;;;4.70;4.22;;;;;;;;;;5119155;27;20122;-85
2022/09/04 14:37:29;;;;;;;6.50;4.45;;;;;;;;;;5114210;27;20069;-85
2022/09/04 14:40:05;;;;;;;4.75;4.20;;;;;;;;;;5110356;27;20047;-87
2022/09/04 14:42:30;;;;;;;5.03;4.50;;;;;;;;;;5091662;28;20048;-89
2022/09/04 14:44:56;;;;;;;6.70;4.25;;;;;;;;;;5097136;27;20046;-90
2022/09/04 14:47:41;;;;;;;5.03;4.63;;;;;;;;;;5122988;27;20044;-89
2022/09/04 14:50:09;;;;;;;5.00;4.60;;;;;;;;;;5112115;27;20047;-85
2022/09/04 14:52:40;;;;;;;5.07;4.63;;;;;;;;;;5120789;27;20092;-85
2022/09/04 14:55:08;;;;;;;5.00;4.40;;;;;;;;;;5116245;27;20051;-86
2022/09/04 14:57:40;;;;;;;5.10;4.43;;;;;;;;;;5111264;28;20118;-84
2022/09/04 15:00:13;;;;;;;5.88;4.88;;;;;;;;;;5118222;27;20044;-88
2022/09/04 15:02:42;;;;;;;6.82;4.07;;;;;;;;;;5099887;27;20073;-81
2022/09/04 15:05:18;;;;;;;4.53;4.07;;;;;;;;;;5097345;28;20437;-83
2022/09/04 15:07:55;;;;;;;4.78;4.32;;;;;;;;;;5101993;28;20621;-84
2022/09/04 15:10:24;;;;;;;5.05;3.97;;;;;;;;;;5106024;28;20048;-85
2022/09/04 15:13:10;;;;;;;4.20;3.80;;;;;;;;;;5111053;28;20055;-84
2022/09/04 15:15:41;;;;;;;5.00;4.60;;;;;;;;;;5111756;27;20394;-87
2022/09/04 15:18:22;;;;;;;5.75;4.10;;;;;;;;;;5114461;27;20050;-88
2022/09/04 15:21:01;;;;;;;5.57;4.55;;;;;;;;;;5097234;27;20108;-87
2022/09/04 15:23:37;;;;;;;5.30;4.80;;;;;;;;;;5126358;27;20138;-87
2022/09/04 15:26:30;;;;;;;4.50;4.20;;;;;;;;;;5115018;27;20050;-88
2022/09/04 15:29:03;;;;;;;5.25;4.85;;;;;;;;;;5091948;27;20134;-87
2022/09/04 15:31:32;;;;;;;4.70;4.32;;;;;;;;;;5122949;27;20046;-88
2022/09/04 15:34:03;;;;;;;5.10;4.30;;;;;;;;;;5117180;27;20051;-86
2022/09/04 15:36:30;;;;;;;5.20;4.80;;;;;;;;;;5112567;27;20058;-85
2022/09/04 15:38:57;;;;;;;4.40;4.00;;;;;;;;;;5121222;27;20807;-84
2022/09/04 15:41:36;;;;;;;4.85;4.13;;;;;;;;;;5114679;27;20117;-84
2022/09/04 15:44:14;;;;;;;4.25;3.95;;;;;;;;;;5128070;27;20055;-84